Map

Track Data

SID SEASON NUMBER BASIN SUBBASIN NAME ISO_TIME NATURE LAT LON WMO_WIND WMO_PRES WMO_AGENCY TRACK_TYPE DIST2LAND LANDFALL IFLAG USA_AGENCY USA_ATCF_ID USA_LAT USA_LON USA_RECORD USA_STATUS USA_WIND USA_PRES USA_SSHS USA_R34_NE USA_R34_SE USA_R34_SW USA_R34_NW USA_R50_NE USA_R50_SE USA_R50_SW USA_R50_NW USA_R64_NE USA_R64_SE USA_R64_SW USA_R64_NW USA_POCI USA_ROCI USA_RMW USA_EYE TOKYO_LAT TOKYO_LON TOKYO_GRADE TOKYO_WIND TOKYO_PRES TOKYO_R50_DIR TOKYO_R50_LONG TOKYO_R50_SHORT TOKYO_R30_DIR TOKYO_R30_LONG TOKYO_R30_SHORT TOKYO_LAND CMA_LAT CMA_LON CMA_CAT CMA_WIND CMA_PRES HKO_LAT HKO_LON HKO_CAT HKO_WIND HKO_PRES NEWDELHI_LAT NEWDELHI_LON NEWDELHI_GRADE NEWDELHI_WIND NEWDELHI_PRES NEWDELHI_CI NEWDELHI_DP NEWDELHI_POCI REUNION_LAT REUNION_LON REUNION_TYPE REUNION_WIND REUNION_PRES REUNION_TNUM REUNION_CI REUNION_RMW REUNION_R34_NE REUNION_R34_SE REUNION_R34_SW REUNION_R34_NW REUNION_R50_NE REUNION_R50_SE REUNION_R50_SW REUNION_R50_NW REUNION_R64_NE REUNION_R64_SE REUNION_R64_SW REUNION_R64_NW BOM_LAT BOM_LON BOM_TYPE BOM_WIND BOM_PRES BOM_TNUM BOM_CI BOM_RMW BOM_R34_NE BOM_R34_SE BOM_R34_SW BOM_R34_NW BOM_R50_NE BOM_R50_SE BOM_R50_SW BOM_R50_NW BOM_R64_NE BOM_R64_SE BOM_R64_SW BOM_R64_NW BOM_ROCI BOM_POCI BOM_EYE BOM_POS_METHOD BOM_PRES_METHOD NADI_LAT NADI_LON NADI_CAT NADI_WIND NADI_PRES WELLINGTON_LAT WELLINGTON_LON WELLINGTON_WIND WELLINGTON_PRES DS824_LAT DS824_LON DS824_STAGE DS824_WIND DS824_PRES TD9636_LAT TD9636_LON TD9636_STAGE TD9636_WIND TD9636_PRES TD9635_LAT TD9635_LON TD9635_WIND TD9635_PRES TD9635_ROCI NEUMANN_LAT NEUMANN_LON NEUMANN_CLASS NEUMANN_WIND NEUMANN_PRES MLC_LAT MLC_LON MLC_CLASS MLC_WIND MLC_PRES USA_GUST BOM_GUST BOM_GUST_PER REUNION_GUST REUNION_GUST_PER USA_SEAHGT USA_SEARAD_NE USA_SEARAD_SE USA_SEARAD_SW USA_SEARAD_NW STORM_SPEED STORM_DIR
1869305S06452 1870 24 SI WA NOT_NAMED 1869-10-31 18:00:00 NR -6.30000 92.2000 main 904 904 __________O___ -1 -6.30000 92.2000 7 4 239
1869305S06452 1870 24 SI WA NOT_NAMED 1869-10-31 21:00:00 NR -6.40451 92.0280 main 929 929 __________P___ -1 -6.40451 92.0280 7 4 239
1869305S06452 1870 24 SI WA NOT_NAMED 1869-11-01 00:00:00 NR -6.52722 91.8247 main 954 954 __________P___ -1 -6.52722 91.8248 7 5 239
1869305S06452 1870 24 SI WA NOT_NAMED 1869-11-01 03:00:00 NR -6.68633 91.5592 main 985 985 __________P___ -1 -6.68633 91.5592 7 7 239
1869305S06452 1870 24 SI WA NOT_NAMED 1869-11-01 06:00:00 NR -6.90000 91.2000 main 1034 1034 __________O___ -1 -6.90000 91.2000 7 10 239
1869305S06452 1870 24 SI WA NOT_NAMED 1869-11-01 09:00:00 NR -7.18061 90.7282 main 1098 1098 __________P___ -1 -7.18061 90.7282 7 12 239
1869305S06452 1870 24 SI WA NOT_NAMED 1869-11-01 12:00:00 NR -7.51793 90.1750 main 1163 1163 __________P___ -1 -7.51793 90.1750 7 13 238
1869305S06452 1870 24 SI MM NOT_NAMED 1869-11-01 15:00:00 NR -7.89623 89.5843 main 1243 1243 __________P___ -1 -7.89623 89.5843 7 14 236
1869305S06452 1870 24 SI MM NOT_NAMED 1869-11-01 18:00:00 NR -8.30000 89.0000 main 1323 1323 __________O___ -1 -8.30000 89.0000 7 14 234
1869305S06452 1870 24 SI MM NOT_NAMED 1869-11-01 21:00:00 NR -8.72784 88.4414 main 1402 1402 __________P___ -1 -8.72784 88.4414 7 14 231
1869305S06452 1870 24 SI MM NOT_NAMED 1869-11-02 00:00:00 NR -9.17263 87.9031 main 1479 1479 __________P___ -1 -9.17263 87.9031 7 13 229
1869305S06452 1870 24 SI MM NOT_NAMED 1869-11-02 03:00:00 NR -9.60607 87.4133 main 1550 1550 __________P___ -1 -9.60607 87.4133 7 12 227
1869305S06452 1870 24 SI MM NOT_NAMED 1869-11-02 06:00:00 NR -10.0000 87.0000 main 1611 1611 __________O___ -1 -10.0000 87.0000 7 10 225
1869305S06452 1870 24 SI MM NOT_NAMED 1869-11-02 09:00:00 NR -10.3217 86.6913 main 1657 1657 __________P___ -1 -10.3217 86.6913 7 8 221
1869305S06452 1870 24 SI MM NOT_NAMED 1869-11-02 12:00:00 NR -10.6019 86.4593 main 1695 1695 __________P___ -1 -10.6019 86.4593 7 7 218
1869305S06452 1870 24 SI MM NOT_NAMED 1869-11-02 15:00:00 NR -10.8562 86.2727 main 1732 1732 __________P___ -1 -10.8562 86.2727 7 6 215
1869305S06452 1870 24 SI MM NOT_NAMED 1869-11-02 18:00:00 NR -11.1000 86.1000 main 1763 1763 __________O___ -1 -11.1000 86.1000 7 6 219
1869305S06452 1870 24 SI MM NOT_NAMED 1869-11-02 21:00:00 NR -11.3369 85.8845 main 1794 1794 __________P___ -1 -11.3369 85.8845 7 6 221
1869305S06452 1870 24 SI MM NOT_NAMED 1869-11-03 00:00:00 NR -11.5700 85.6772 main 1831 1831 __________P___ -1 -11.5700 85.6772 7 6 219
1869305S06452 1870 24 SI MM NOT_NAMED 1869-11-03 03:00:00 NR -11.8181 85.4814 main 1862 1862 __________P___ -1 -11.8181 85.4814 7 6 215
1869305S06452 1870 24 SI MM NOT_NAMED 1869-11-03 06:00:00 NR -12.1000 85.3000 main 1899 1899 __________O___ -1 -12.1000 85.3000 7 7 209
1869305S06452 1870 24 SI MM NOT_NAMED 1869-11-03 09:00:00 NR -12.4471 85.1315 main 1937 1937 __________P___ -1 -12.4471 85.1315 7 8 203
1869305S06452 1870 24 SI MM NOT_NAMED 1869-11-03 12:00:00 NR -12.8274 84.9775 main 1973 1973 __________P___ -1 -12.8274 84.9775 7 8 201
1869305S06452 1870 24 SI MM NOT_NAMED 1869-11-03 15:00:00 NR -13.2190 84.8347 main 2017 2017 __________P___ -1 -13.2190 84.8347 7 8 199
1869305S06452 1870 24 SI MM NOT_NAMED 1869-11-03 18:00:00 NR -13.6000 84.7000 main 2054 2054 __________O___ -1 -13.6000 84.7000 7 8 200
1869305S06452 1870 24 SI MM NOT_NAMED 1869-11-03 21:00:00 NR -13.9434 84.5556 main 2084 2084 __________P___ -1 -13.9434 84.5556 7 7 202
1869305S06452 1870 24 SI MM NOT_NAMED 1869-11-04 00:00:00 NR -14.2725 84.4200 main 2129 2129 __________P___ -1 -14.2725 84.4200 7 7 201
1869305S06452 1870 24 SI MM NOT_NAMED 1869-11-04 03:00:00 NR -14.5903 84.2994 main 2159 2159 __________P___ -1 -14.5903 84.2994 7 7 199
1869305S06452 1870 24 SI MM NOT_NAMED 1869-11-04 06:00:00 NR -14.9000 84.2000 main 2189 2189 __________O___ -1 -14.9000 84.2000 7 6 196
1869305S06452 1870 24 SI MM NOT_NAMED 1869-11-04 09:00:00 NR -15.2031 84.1202 main 2219 2219 __________P___ -1 -15.2031 84.1202 7 6 192
1869305S06452 1870 24 SI MM NOT_NAMED 1869-11-04 12:00:00 NR -15.5000 84.0624 main 2242 2242 __________P___ -1 -15.5000 84.0624 7 6 189
1869305S06452 1870 24 SI MM NOT_NAMED 1869-11-04 15:00:00 NR -15.7969 84.0234 main 2272 2272 __________P___ -1 -15.7969 84.0234 7 6 185
1869305S06452 1870 24 SI MM NOT_NAMED 1869-11-04 18:00:00 NR -16.1000 84.0000 main 2295 2295 __________O___ -1 -16.1000 84.0000 7 6 184
1869305S06452 1870 24 SI MM NOT_NAMED 1869-11-04 21:00:00 NR -16.4056 83.9775 main 2318 2318 __________P___ -1 -16.4056 83.9775 7 6 184
1869305S06452 1870 24 SI MM NOT_NAMED 1869-11-05 00:00:00 NR -16.7200 83.9701 main 2341 2341 __________P___ -1 -16.7200 83.9701 7 6 178
1869305S06452 1870 24 SI MM NOT_NAMED 1869-11-05 03:00:00 NR -17.0494 83.9776 main 2365 2365 __________P___ -1 -17.0494 83.9776 7 7 177
1869305S06452 1870 24 SI MM NOT_NAMED 1869-11-05 06:00:00 NR -17.4000 84.0000 main 2397 2397 __________O___ -1 -17.4000 84.0000 7 8 175
1869305S06452 1870 24 SI MM NOT_NAMED 1869-11-05 09:00:00 NR -17.8069 84.0315 main 2429 2429 __________P___ -1 -17.8069 84.0315 7 8 175
1869305S06452 1870 24 SI MM NOT_NAMED 1869-11-05 12:00:00 NR -18.2300 84.0774 main 2454 2454 __________P___ -1 -18.2300 84.0774 7 8 174
1869305S06452 1870 24 SI MM NOT_NAMED 1869-11-05 15:00:00 NR -18.6381 84.1346 main 2487 2487 __________P___ -1 -18.6381 84.1346 7 8 171
1869305S06452 1870 24 SI MM NOT_NAMED 1869-11-05 18:00:00 NR -19.0000 84.2000 main 2514 2514 __________O___ -1 -19.0000 84.2000 7 7 169
1869305S06452 1870 24 SI MM NOT_NAMED 1869-11-05 21:00:00 NR -19.2928 84.2706 main 2532 2532 __________P___ -1 -19.2928 84.2706 7 5 165
1869305S06452 1870 24 SI MM NOT_NAMED 1869-11-06 00:00:00 NR -19.5275 84.3450 main 2549 2549 __________P___ -1 -19.5275 84.3450 7 5 162
1869305S06452 1870 24 SI MM NOT_NAMED 1869-11-06 03:00:00 NR -19.7234 84.4218 main 2559 2559 __________P___ -1 -19.7234 84.4218 7 4 158
1869305S06452 1870 24 SI MM NOT_NAMED 1869-11-06 06:00:00 NR -19.9000 84.5000 main 2570 __________O___ -1 -19.9000 84.5000 7 4 159

About IBTrACS Database

This database is a web-friendly format of International Best Track Archive for Climate Stewardship (IBTrACS), a global best track data archive curated by NOAA dating back to 1842.

Updated: 2021-10-21